sensor_id;sensor_type;location;lat;lon;timestamp;temperature;humidity
44509;DHT22;30214;52.246;14.408;2022-09-09T00:01:23;16.10;99.90
44509;DHT22;30214;52.246;14.408;2022-09-09T00:04:00;16.00;99.90
44509;DHT22;30214;52.246;14.408;2022-09-09T00:06:32;16.10;99.90
44509;DHT22;30214;52.246;14.408;2022-09-09T00:09:13;16.00;99.90
44509;DHT22;30214;52.246;14.408;2022-09-09T00:11:47;15.90;99.90
44509;DHT22;30214;52.246;14.408;2022-09-09T00:14:25;15.90;99.90
44509;DHT22;30214;52.246;14.408;2022-09-09T00:17:08;15.80;99.90
44509;DHT22;30214;52.246;14.408;2022-09-09T00:19:41;15.70;99.90
44509;DHT22;30214;52.246;14.408;2022-09-09T00:22:17;15.60;99.90
44509;DHT22;30214;52.246;14.408;2022-09-09T00:24:48;15.50;99.90
44509;DHT22;30214;52.246;14.408;2022-09-09T00:27:28;15.50;99.90
44509;DHT22;30214;52.246;14.408;2022-09-09T00:30:14;15.50;99.90
44509;DHT22;30214;52.246;14.408;2022-09-09T00:32:45;15.50;99.90
44509;DHT22;30214;52.246;14.408;2022-09-09T00:35:20;15.40;99.90
44509;DHT22;30214;52.246;14.408;2022-09-09T00:37:51;15.40;99.90
44509;DHT22;30214;52.246;14.408;2022-09-09T00:40:29;15.30;99.90
44509;DHT22;30214;52.246;14.408;2022-09-09T00:43:16;15.20;99.90
44509;DHT22;30214;52.246;14.408;2022-09-09T00:46:21;15.20;99.90
44509;DHT22;30214;52.246;14.408;2022-09-09T00:49:04;15.10;99.90
44509;DHT22;30214;52.246;14.408;2022-09-09T00:51:44;15.10;99.90
44509;DHT22;30214;52.246;14.408;2022-09-09T00:54:28;15.00;99.90
44509;DHT22;30214;52.246;14.408;2022-09-09T00:57:12;15.00;99.90
44509;DHT22;30214;52.246;14.408;2022-09-09T00:59:47;15.00;99.90
44509;DHT22;30214;52.246;14.408;2022-09-09T01:02:27;14.90;99.90
44509;DHT22;30214;52.246;14.408;2022-09-09T01:05:01;14.90;99.90
44509;DHT22;30214;52.246;14.408;2022-09-09T01:07:32;14.80;99.90
44509;DHT22;30214;52.246;14.408;2022-09-09T01:10:00;14.90;99.90
44509;DHT22;30214;52.246;14.408;2022-09-09T01:12:40;15.00;99.90
44509;DHT22;30214;52.246;14.408;2022-09-09T01:15:16;15.00;99.90
44509;DHT22;30214;52.246;14.408;2022-09-09T01:17:59;15.00;99.90
44509;DHT22;30214;52.246;14.408;2022-09-09T01:20:33;15.10;99.90
44509;DHT22;30214;52.246;14.408;2022-09-09T01:23:17;15.10;99.90
44509;DHT22;30214;52.246;14.408;2022-09-09T01:26:18;15.10;99.90
44509;DHT22;30214;52.246;14.408;2022-09-09T01:28:50;15.10;99.90
44509;DHT22;30214;52.246;14.408;2022-09-09T01:31:23;15.10;99.90
44509;DHT22;30214;52.246;14.408;2022-09-09T01:33:54;15.10;99.90
44509;DHT22;30214;52.246;14.408;2022-09-09T01:36:27;15.00;99.90
44509;DHT22;30214;52.246;14.408;2022-09-09T01:38:59;15.00;99.90
44509;DHT22;30214;52.246;14.408;2022-09-09T01:41:28;15.00;99.90
44509;DHT22;30214;52.246;14.408;2022-09-09T01:44:03;15.00;99.90
44509;DHT22;30214;52.246;14.408;2022-09-09T01:46:33;15.00;99.90
44509;DHT22;30214;52.246;14.408;2022-09-09T01:49:04;14.90;99.90
44509;DHT22;30214;52.246;14.408;2022-09-09T01:51:33;14.80;99.90
44509;DHT22;30214;52.246;14.408;2022-09-09T01:54:04;14.70;99.90
44509;DHT22;30214;52.246;14.408;2022-09-09T01:56:42;14.70;99.90
44509;DHT22;30214;52.246;14.408;2022-09-09T02:02:24;14.70;99.90
44509;DHT22;30214;52.246;14.408;2022-09-09T02:05:17;14.60;99.90
44509;DHT22;30214;52.246;14.408;2022-09-09T02:07:52;14.60;99.90
44509;DHT22;30214;52.246;14.408;2022-09-09T02:10:37;14.60;99.90
44509;DHT22;30214;52.246;14.408;2022-09-09T02:13:18;14.70;99.90
44509;DHT22;30214;52.246;14.408;2022-09-09T02:15:50;14.70;99.90
44509;DHT22;30214;52.246;14.408;2022-09-09T02:18:24;14.70;99.90
44509;DHT22;30214;52.246;14.408;2022-09-09T02:20:54;14.70;99.90
44509;DHT22;30214;52.246;14.408;2022-09-09T02:23:23;14.70;99.90
44509;DHT22;30214;52.246;14.408;2022-09-09T02:25:55;14.70;99.90
44509;DHT22;30214;52.246;14.408;2022-09-09T02:28:28;14.70;99.90
44509;DHT22;30214;52.246;14.408;2022-09-09T02:30:56;14.70;99.90
44509;DHT22;30214;52.246;14.408;2022-09-09T02:33:35;14.60;99.90
44509;DHT22;30214;52.246;14.408;2022-09-09T02:36:05;14.50;99.90
44509;DHT22;30214;52.246;14.408;2022-09-09T02:38:37;14.50;99.90
44509;DHT22;30214;52.246;14.408;2022-09-09T02:41:11;14.50;99.90
44509;DHT22;30214;52.246;14.408;2022-09-09T02:43:41;14.40;99.90
44509;DHT22;30214;52.246;14.408;2022-09-09T02:46:24;14.40;99.90
44509;DHT22;30214;52.246;14.408;2022-09-09T02:49:01;14.40;99.90
44509;DHT22;30214;52.246;14.408;2022-09-09T02:51:40;14.40;99.90
44509;DHT22;30214;52.246;14.408;2022-09-09T02:54:19;14.40;99.90
44509;DHT22;30214;52.246;14.408;2022-09-09T02:56:51;14.30;99.90
44509;DHT22;30214;52.246;14.408;2022-09-09T02:59:27;14.30;99.90
44509;DHT22;30214;52.246;14.408;2022-09-09T03:01:55;14.20;99.90
44509;DHT22;30214;52.246;14.408;2022-09-09T03:04:23;14.20;99.90
44509;DHT22;30214;52.246;14.408;2022-09-09T03:06:51;14.10;99.90
44509;DHT22;30214;52.246;14.408;2022-09-09T03:09:20;14.00;99.90
44509;DHT22;30214;52.246;14.408;2022-09-09T03:11:48;13.90;99.90
44509;DHT22;30214;52.246;14.408;2022-09-09T03:14:16;14.00;99.90
44509;DHT22;30214;52.246;14.408;2022-09-09T03:16:49;14.00;99.90
44509;DHT22;30214;52.246;14.408;2022-09-09T03:19:16;14.00;99.90
44509;DHT22;30214;52.246;14.408;2022-09-09T03:57:10;13.90;99.90
44509;DHT22;30214;52.246;14.408;2022-09-09T03:59:38;13.90;99.90
44509;DHT22;30214;52.246;14.408;2022-09-09T04:02:05;13.90;99.90
44509;DHT22;30214;52.246;14.408;2022-09-09T04:04:32;13.90;99.90
44509;DHT22;30214;52.246;14.408;2022-09-09T04:06:59;13.70;99.90
44509;DHT22;30214;52.246;14.408;2022-09-09T04:09:26;13.70;99.90
44509;DHT22;30214;52.246;14.408;2022-09-09T04:11:53;13.70;99.90
44509;DHT22;30214;52.246;14.408;2022-09-09T04:14:22;13.80;99.90
44509;DHT22;30214;52.246;14.408;2022-09-09T04:16:54;13.80;99.90
44509;DHT22;30214;52.246;14.408;2022-09-09T04:19:25;13.90;99.90
44509;DHT22;30214;52.246;14.408;2022-09-09T04:21:52;13.80;99.90
44509;DHT22;30214;52.246;14.408;2022-09-09T04:24:21;13.80;99.90
44509;DHT22;30214;52.246;14.408;2022-09-09T04:26:49;13.80;99.90
44509;DHT22;30214;52.246;14.408;2022-09-09T04:29:16;13.80;99.90
44509;DHT22;30214;52.246;14.408;2022-09-09T04:31:45;13.80;99.90
44509;DHT22;30214;52.246;14.408;2022-09-09T04:34:12;13.80;99.90
44509;DHT22;30214;52.246;14.408;2022-09-09T04:36:40;13.80;99.90
44509;DHT22;30214;52.246;14.408;2022-09-09T04:39:08;13.70;99.90
44509;DHT22;30214;52.246;14.408;2022-09-09T04:41:35;13.70;99.90
44509;DHT22;30214;52.246;14.408;2022-09-09T04:44:03;13.70;99.90
44509;DHT22;30214;52.246;14.408;2022-09-09T04:46:32;13.60;99.90
44509;DHT22;30214;52.246;14.408;2022-09-09T04:49:01;13.80;99.90
44509;DHT22;30214;52.246;14.408;2022-09-09T04:51:30;14.00;99.90
44509;DHT22;30214;52.246;14.408;2022-09-09T04:53:58;14.20;99.90
44509;DHT22;30214;52.246;14.408;2022-09-09T04:56:26;14.60;99.90
44509;DHT22;30214;52.246;14.408;2022-09-09T04:58:57;14.90;99.90
44509;DHT22;30214;52.246;14.408;2022-09-09T05:01:36;15.10;99.90
44509;DHT22;30214;52.246;14.408;2022-09-09T05:04:06;15.40;99.90
44509;DHT22;30214;52.246;14.408;2022-09-09T05:06:34;15.80;99.90
44509;DHT22;30214;52.246;14.408;2022-09-09T05:09:03;16.20;99.90
44509;DHT22;30214;52.246;14.408;2022-09-09T05:11:32;16.40;99.90
44509;DHT22;30214;52.246;14.408;2022-09-09T05:14:09;16.80;99.90
44509;DHT22;30214;52.246;14.408;2022-09-09T05:16:38;17.10;99.90
44509;DHT22;30214;52.246;14.408;2022-09-09T05:19:06;17.50;99.90
44509;DHT22;30214;52.246;14.408;2022-09-09T05:21:42;17.80;99.90
44509;DHT22;30214;52.246;14.408;2022-09-09T05:24:09;18.00;99.90
44509;DHT22;30214;52.246;14.408;2022-09-09T05:26:37;18.30;99.90
44509;DHT22;30214;52.246;14.408;2022-09-09T05:29:04;18.50;99.90
44509;DHT22;30214;52.246;14.408;2022-09-09T05:31:31;18.70;99.90
44509;DHT22;30214;52.246;14.408;2022-09-09T05:34:02;18.70;99.90
44509;DHT22;30214;52.246;14.408;2022-09-09T05:36:30;18.80;99.90
44509;DHT22;30214;52.246;14.408;2022-09-09T05:38:58;18.90;99.90
44509;DHT22;30214;52.246;14.408;2022-09-09T05:41:27;18.90;99.90
44509;DHT22;30214;52.246;14.408;2022-09-09T05:43:56;19.10;99.90
44509;DHT22;30214;52.246;14.408;2022-09-09T05:46:24;19.40;99.90
44509;DHT22;30214;52.246;14.408;2022-09-09T05:48:53;19.50;99.90
44509;DHT22;30214;52.246;14.408;2022-09-09T05:51:31;19.60;99.90
44509;DHT22;30214;52.246;14.408;2022-09-09T05:54:03;19.80;99.90
44509;DHT22;30214;52.246;14.408;2022-09-09T05:56:33;19.80;99.90
44509;DHT22;30214;52.246;14.408;2022-09-09T05:59:00;19.90;99.90
44509;DHT22;30214;52.246;14.408;2022-09-09T06:01:29;20.00;99.90
44509;DHT22;30214;52.246;14.408;2022-09-09T06:03:57;20.10;99.90
44509;DHT22;30214;52.246;14.408;2022-09-09T06:06:26;20.20;99.90
44509;DHT22;30214;52.246;14.408;2022-09-09T06:08:59;20.40;99.90
44509;DHT22;30214;52.246;14.408;2022-09-09T06:11:32;20.60;99.90
44509;DHT22;30214;52.246;14.408;2022-09-09T06:14:03;20.80;99.90
44509;DHT22;30214;52.246;14.408;2022-09-09T06:16:32;20.80;99.90
44509;DHT22;30214;52.246;14.408;2022-09-09T06:19:00;20.80;99.90
44509;DHT22;30214;52.246;14.408;2022-09-09T06:21:30;20.90;99.90
44509;DHT22;30214;52.246;14.408;2022-09-09T06:24:02;20.80;99.90
44509;DHT22;30214;52.246;14.408;2022-09-09T06:26:31;20.70;99.90
44509;DHT22;30214;52.246;14.408;2022-09-09T06:29:01;20.70;99.90
44509;DHT22;30214;52.246;14.408;2022-09-09T06:31:32;20.80;99.90
44509;DHT22;30214;52.246;14.408;2022-09-09T06:34:08;20.80;99.90
44509;DHT22;30214;52.246;14.408;2022-09-09T06:36:39;21.00;99.90
44509;DHT22;30214;52.246;14.408;2022-09-09T06:39:08;21.10;99.90
44509;DHT22;30214;52.246;14.408;2022-09-09T06:41:37;21.10;99.90
44509;DHT22;30214;52.246;14.408;2022-09-09T06:44:08;20.80;99.90
44509;DHT22;30214;52.246;14.408;2022-09-09T06:46:41;20.40;99.90
44509;DHT22;30214;52.246;14.408;2022-09-09T06:49:10;20.40;99.90
44509;DHT22;30214;52.246;14.408;2022-09-09T06:51:38;19.90;99.90
44509;DHT22;30214;52.246;14.408;2022-09-09T06:54:11;19.40;99.90
44509;DHT22;30214;52.246;14.408;2022-09-09T06:56:42;19.30;99.90
44509;DHT22;30214;52.246;14.408;2022-09-09T06:59:18;19.20;99.90
44509;DHT22;30214;52.246;14.408;2022-09-09T07:01:46;19.20;99.90
44509;DHT22;30214;52.246;14.408;2022-09-09T07:04:14;19.30;99.90
44509;DHT22;30214;52.246;14.408;2022-09-09T07:06:45;19.50;99.90
44509;DHT22;30214;52.246;14.408;2022-09-09T07:09:23;19.70;99.90
44509;DHT22;30214;52.246;14.408;2022-09-09T07:11:52;20.10;99.90
44509;DHT22;30214;52.246;14.408;2022-09-09T07:14:21;20.10;99.90
44509;DHT22;30214;52.246;14.408;2022-09-09T07:16:54;20.10;99.90
44509;DHT22;30214;52.246;14.408;2022-09-09T07:19:23;20.30;99.90
44509;DHT22;30214;52.246;14.408;2022-09-09T07:21:52;20.50;99.90
44509;DHT22;30214;52.246;14.408;2022-09-09T07:24:23;20.80;99.90
44509;DHT22;30214;52.246;14.408;2022-09-09T07:26:51;21.20;99.90
44509;DHT22;30214;52.246;14.408;2022-09-09T07:29:18;21.20;99.90
44509;DHT22;30214;52.246;14.408;2022-09-09T07:31:45;21.20;99.90
44509;DHT22;30214;52.246;14.408;2022-09-09T07:34:17;21.00;99.90
44509;DHT22;30214;52.246;14.408;2022-09-09T07:36:44;20.80;99.90
44509;DHT22;30214;52.246;14.408;2022-09-09T07:39:14;20.40;99.90
44509;DHT22;30214;52.246;14.408;2022-09-09T07:41:49;20.40;99.90
44509;DHT22;30214;52.246;14.408;2022-09-09T07:44:21;20.30;99.90
44509;DHT22;30214;52.246;14.408;2022-09-09T07:47:02;20.40;99.90
44509;DHT22;30214;52.246;14.408;2022-09-09T07:49:35;20.50;99.90
44509;DHT22;30214;52.246;14.408;2022-09-09T07:52:04;20.50;99.90
44509;DHT22;30214;52.246;14.408;2022-09-09T07:54:32;20.60;99.90
44509;DHT22;30214;52.246;14.408;2022-09-09T07:57:03;20.90;99.90
44509;DHT22;30214;52.246;14.408;2022-09-09T07:59:32;20.90;99.90
44509;DHT22;30214;52.246;14.408;2022-09-09T08:01:59;21.00;99.90
44509;DHT22;30214;52.246;14.408;2022-09-09T08:04:30;21.10;99.90
44509;DHT22;30214;52.246;14.408;2022-09-09T08:06:59;20.90;99.90
44509;DHT22;30214;52.246;14.408;2022-09-09T08:09:28;20.90;99.90
44509;DHT22;30214;52.246;14.408;2022-09-09T08:12:06;20.90;99.90
44509;DHT22;30214;52.246;14.408;2022-09-09T08:14:34;20.80;99.90
44509;DHT22;30214;52.246;14.408;2022-09-09T08:17:02;20.80;99.90
44509;DHT22;30214;52.246;14.408;2022-09-09T08:19:31;20.90;99.90
44509;DHT22;30214;52.246;14.408;2022-09-09T08:22:00;21.10;99.90
44509;DHT22;30214;52.246;14.408;2022-09-09T08:24:30;21.00;99.90
44509;DHT22;30214;52.246;14.408;2022-09-09T08:26:57;20.80;99.90
44509;DHT22;30214;52.246;14.408;2022-09-09T08:29:26;20.60;99.90
44509;DHT22;30214;52.246;14.408;2022-09-09T08:31:55;20.60;99.90
44509;DHT22;30214;52.246;14.408;2022-09-09T08:34:24;20.80;99.90
44509;DHT22;30214;52.246;14.408;2022-09-09T08:36:53;20.90;99.90
44509;DHT22;30214;52.246;14.408;2022-09-09T08:39:27;20.80;99.90
44509;DHT22;30214;52.246;14.408;2022-09-09T08:42:05;20.80;99.90
44509;DHT22;30214;52.246;14.408;2022-09-09T08:47:56;20.70;99.90
44509;DHT22;30214;52.246;14.408;2022-09-09T08:50:32;20.50;99.90
44509;DHT22;30214;52.246;14.408;2022-09-09T08:53:14;20.50;99.90
44509;DHT22;30214;52.246;14.408;2022-09-09T08:55:45;20.50;99.90
44509;DHT22;30214;52.246;14.408;2022-09-09T08:58:18;20.30;99.90
44509;DHT22;30214;52.246;14.408;2022-09-09T09:01:09;20.30;99.90
44509;DHT22;30214;52.246;14.408;2022-09-09T09:03:53;20.20;99.90
44509;DHT22;30214;52.246;14.408;2022-09-09T09:06:35;20.30;99.90
44509;DHT22;30214;52.246;14.408;2022-09-09T09:09:15;20.30;99.90
44509;DHT22;30214;52.246;14.408;2022-09-09T09:11:49;20.30;99.90
44509;DHT22;30214;52.246;14.408;2022-09-09T09:14:21;20.40;99.90
44509;DHT22;30214;52.246;14.408;2022-09-09T09:16:54;20.60;99.90
44509;DHT22;30214;52.246;14.408;2022-09-09T09:19:24;20.80;99.90
44509;DHT22;30214;52.246;14.408;2022-09-09T09:21:58;21.10;99.90
44509;DHT22;30214;52.246;14.408;2022-09-09T09:24:36;21.30;99.90
44509;DHT22;30214;52.246;14.408;2022-09-09T09:27:13;21.70;99.90
44509;DHT22;30214;52.246;14.408;2022-09-09T09:29:48;22.10;99.90
44509;DHT22;30214;52.246;14.408;2022-09-09T09:32:21;22.30;99.90
44509;DHT22;30214;52.246;14.408;2022-09-09T09:34:52;22.30;99.90
44509;DHT22;30214;52.246;14.408;2022-09-09T09:37:27;22.40;99.90
44509;DHT22;30214;52.246;14.408;2022-09-09T09:40:08;22.60;99.50
44509;DHT22;30214;52.246;14.408;2022-09-09T09:42:36;22.70;99.90
44509;DHT22;30214;52.246;14.408;2022-09-09T09:45:12;23.00;99.50
44509;DHT22;30214;52.246;14.408;2022-09-09T09:47:45;22.80;99.90
44509;DHT22;30214;52.246;14.408;2022-09-09T09:50:17;22.60;99.90
44509;DHT22;30214;52.246;14.408;2022-09-09T09:52:54;22.40;99.90
44509;DHT22;30214;52.246;14.408;2022-09-09T09:55:23;22.00;99.90
44509;DHT22;30214;52.246;14.408;2022-09-09T09:57:52;21.80;99.90
44509;DHT22;30214;52.246;14.408;2022-09-09T10:00:21;22.10;99.90
44509;DHT22;30214;52.246;14.408;2022-09-09T10:03:21;22.50;99.90
44509;DHT22;30214;52.246;14.408;2022-09-09T10:05:52;22.90;98.50
44509;DHT22;30214;52.246;14.408;2022-09-09T10:08:22;22.90;98.70
44509;DHT22;30214;52.246;14.408;2022-09-09T10:10:57;22.80;98.10
44509;DHT22;30214;52.246;14.408;2022-09-09T10:13:42;22.80;98.20
44509;DHT22;30214;52.246;14.408;2022-09-09T10:16:25;22.90;98.10
44509;DHT22;30214;52.246;14.408;2022-09-09T10:19:04;22.80;98.10
44509;DHT22;30214;52.246;14.408;2022-09-09T10:22:02;22.80;98.10
44509;DHT22;30214;52.246;14.408;2022-09-09T10:27:55;23.30;98.80
44509;DHT22;30214;52.246;14.408;2022-09-09T10:30:42;23.40;97.20
44509;DHT22;30214;52.246;14.408;2022-09-09T10:33:21;23.40;96.90
44509;DHT22;30214;52.246;14.408;2022-09-09T10:36:03;23.40;97.10
44509;DHT22;30214;52.246;14.408;2022-09-09T10:38:40;23.60;96.70
44509;DHT22;30214;52.246;14.408;2022-09-09T10:41:18;23.70;96.60
44509;DHT22;30214;52.246;14.408;2022-09-09T10:44:13;23.80;96.30
44509;DHT22;30214;52.246;14.408;2022-09-09T10:46:54;24.00;95.30
44509;DHT22;30214;52.246;14.408;2022-09-09T10:49:50;24.00;95.70
44509;DHT22;30214;52.246;14.408;2022-09-09T10:52:31;24.20;94.40
44509;DHT22;30214;52.246;14.408;2022-09-09T10:55:02;24.00;94.10
44509;DHT22;30214;52.246;14.408;2022-09-09T10:57:38;24.00;94.30
44509;DHT22;30214;52.246;14.408;2022-09-09T11:00:15;24.10;95.50
44509;DHT22;30214;52.246;14.408;2022-09-09T11:02:45;24.20;93.80
44509;DHT22;30214;52.246;14.408;2022-09-09T11:05:17;24.30;94.00
44509;DHT22;30214;52.246;14.408;2022-09-09T11:07:51;24.20;94.50
44509;DHT22;30214;52.246;14.408;2022-09-09T11:10:24;24.30;93.40
44509;DHT22;30214;52.246;14.408;2022-09-09T11:13:03;24.30;92.80
44509;DHT22;30214;52.246;14.408;2022-09-09T11:15:36;24.20;93.80
44509;DHT22;30214;52.246;14.408;2022-09-09T11:18:11;23.90;92.50
44509;DHT22;30214;52.246;14.408;2022-09-09T11:20:43;23.90;94.70
44509;DHT22;30214;52.246;14.408;2022-09-09T11:23:15;23.90;93.90
44509;DHT22;30214;52.246;14.408;2022-09-09T11:25:48;24.00;92.70
44509;DHT22;30214;52.246;14.408;2022-09-09T11:28:40;24.10;93.10
44509;DHT22;30214;52.246;14.408;2022-09-09T11:31:27;24.20;92.30
44509;DHT22;30214;52.246;14.408;2022-09-09T11:34:17;24.30;92.70
44509;DHT22;30214;52.246;14.408;2022-09-09T11:37:16;24.40;92.30
44509;DHT22;30214;52.246;14.408;2022-09-09T11:42:45;24.40;91.60
44509;DHT22;30214;52.246;14.408;2022-09-09T11:45:22;24.20;90.80
44509;DHT22;30214;52.246;14.408;2022-09-09T11:47:52;24.20;93.40
44509;DHT22;30214;52.246;14.408;2022-09-09T11:50:29;24.30;92.10
44509;DHT22;30214;52.246;14.408;2022-09-09T11:53:21;24.50;90.70
44509;DHT22;30214;52.246;14.408;2022-09-09T11:56:03;24.60;91.00
44509;DHT22;30214;52.246;14.408;2022-09-09T11:58:41;24.60;91.50
44509;DHT22;30214;52.246;14.408;2022-09-09T12:01:28;24.60;91.60
44509;DHT22;30214;52.246;14.408;2022-09-09T12:07:03;24.50;91.00
44509;DHT22;30214;52.246;14.408;2022-09-09T12:09:42;24.30;90.80
44509;DHT22;30214;52.246;14.408;2022-09-09T12:12:25;24.00;90.60
44509;DHT22;30214;52.246;14.408;2022-09-09T12:17:59;23.90;91.80
44509;DHT22;30214;52.246;14.408;2022-09-09T12:20:32;23.80;92.30
44509;DHT22;30214;52.246;14.408;2022-09-09T12:23:19;23.70;91.50
44509;DHT22;30214;52.246;14.408;2022-09-09T12:26:01;23.60;93.10
44509;DHT22;30214;52.246;14.408;2022-09-09T12:28:47;23.80;92.20
44509;DHT22;30214;52.246;14.408;2022-09-09T12:31:23;24.20;92.10
44509;DHT22;30214;52.246;14.408;2022-09-09T12:33:54;24.40;91.40
44509;DHT22;30214;52.246;14.408;2022-09-09T12:36:24;24.50;90.60
44509;DHT22;30214;52.246;14.408;2022-09-09T12:38:56;24.40;91.70
44509;DHT22;30214;52.246;14.408;2022-09-09T12:41:27;24.40;91.20
44509;DHT22;30214;52.246;14.408;2022-09-09T12:44:05;24.60;90.70
44509;DHT22;30214;52.246;14.408;2022-09-09T12:46:36;24.80;90.30
44509;DHT22;30214;52.246;14.408;2022-09-09T12:49:18;24.80;88.80
44509;DHT22;30214;52.246;14.408;2022-09-09T12:51:52;24.80;88.00
44509;DHT22;30214;52.246;14.408;2022-09-09T12:54:19;24.60;89.30
44509;DHT22;30214;52.246;14.408;2022-09-09T12:56:49;24.60;91.00
44509;DHT22;30214;52.246;14.408;2022-09-09T12:59:24;24.70;91.90
44509;DHT22;30214;52.246;14.408;2022-09-09T13:01:56;24.60;90.50
44509;DHT22;30214;52.246;14.408;2022-09-09T13:04:23;24.60;88.80
44509;DHT22;30214;52.246;14.408;2022-09-09T13:06:51;24.80;90.40
44509;DHT22;30214;52.246;14.408;2022-09-09T13:09:19;24.90;89.40
44509;DHT22;30214;52.246;14.408;2022-09-09T13:11:49;24.90;81.80
44509;DHT22;30214;52.246;14.408;2022-09-09T13:14:19;24.90;82.70
44509;DHT22;30214;52.246;14.408;2022-09-09T13:16:58;24.90;85.60
44509;DHT22;30214;52.246;14.408;2022-09-09T13:19:27;24.90;82.80
44509;DHT22;30214;52.246;14.408;2022-09-09T13:21:57;25.00;85.10
44509;DHT22;30214;52.246;14.408;2022-09-09T13:24:28;25.10;84.20
44509;DHT22;30214;52.246;14.408;2022-09-09T13:26:58;25.10;80.90
44509;DHT22;30214;52.246;14.408;2022-09-09T13:29:29;25.10;80.70
44509;DHT22;30214;52.246;14.408;2022-09-09T13:32:04;25.10;78.30
44509;DHT22;30214;52.246;14.408;2022-09-09T13:34:34;24.90;79.70
44509;DHT22;30214;52.246;14.408;2022-09-09T13:37:03;24.70;80.90
44509;DHT22;30214;52.246;14.408;2022-09-09T13:39:34;24.80;85.50
44509;DHT22;30214;52.246;14.408;2022-09-09T13:42:03;24.90;80.90
44509;DHT22;30214;52.246;14.408;2022-09-09T13:44:36;25.00;82.50
44509;DHT22;30214;52.246;14.408;2022-09-09T13:47:16;25.00;81.80
44509;DHT22;30214;52.246;14.408;2022-09-09T13:49:49;24.90;81.60
44509;DHT22;30214;52.246;14.408;2022-09-09T13:52:18;24.60;82.70
44509;DHT22;30214;52.246;14.408;2022-09-09T13:54:48;24.40;85.50
44509;DHT22;30214;52.246;14.408;2022-09-09T13:57:21;24.30;85.20
44509;DHT22;30214;52.246;14.408;2022-09-09T13:59:53;24.20;91.20
44509;DHT22;30214;52.246;14.408;2022-09-09T14:02:22;24.00;84.10
44509;DHT22;30214;52.246;14.408;2022-09-09T14:04:50;23.90;84.50
44509;DHT22;30214;52.246;14.408;2022-09-09T14:07:21;24.00;84.00
44509;DHT22;30214;52.246;14.408;2022-09-09T14:09:49;24.00;86.40
44509;DHT22;30214;52.246;14.408;2022-09-09T14:12:17;24.10;91.70
44509;DHT22;30214;52.246;14.408;2022-09-09T14:14:44;24.10;91.70
44509;DHT22;30214;52.246;14.408;2022-09-09T14:17:13;24.00;91.10
44509;DHT22;30214;52.246;14.408;2022-09-09T14:19:40;23.90;90.80
44509;DHT22;30214;52.246;14.408;2022-09-09T14:22:08;23.80;90.60
44509;DHT22;30214;52.246;14.408;2022-09-09T14:24:35;23.90;90.20
44509;DHT22;30214;52.246;14.408;2022-09-09T14:27:02;23.90;90.80
44509;DHT22;30214;52.246;14.408;2022-09-09T14:29:29;23.80;91.30
44509;DHT22;30214;52.246;14.408;2022-09-09T14:31:56;23.80;93.90
44509;DHT22;30214;52.246;14.408;2022-09-09T14:34:27;23.70;90.60
44509;DHT22;30214;52.246;14.408;2022-09-09T14:36:54;23.50;90.70
44509;DHT22;30214;52.246;14.408;2022-09-09T14:39:21;23.30;91.10
44509;DHT22;30214;52.246;14.408;2022-09-09T14:41:49;23.20;93.80
44509;DHT22;30214;52.246;14.408;2022-09-09T14:44:16;23.20;94.40
44509;DHT22;30214;52.246;14.408;2022-09-09T14:46:44;23.20;94.10
44509;DHT22;30214;52.246;14.408;2022-09-09T14:49:11;23.20;93.50
44509;DHT22;30214;52.246;14.408;2022-09-09T14:51:40;23.20;92.70
44509;DHT22;30214;52.246;14.408;2022-09-09T14:54:07;23.20;92.80
44509;DHT22;30214;52.246;14.408;2022-09-09T14:56:36;23.20;96.40
44509;DHT22;30214;52.246;14.408;2022-09-09T14:59:03;23.10;97.90
44509;DHT22;30214;52.246;14.408;2022-09-09T15:01:31;23.00;97.50
44509;DHT22;30214;52.246;14.408;2022-09-09T15:04:01;22.90;98.00
44509;DHT22;30214;52.246;14.408;2022-09-09T15:06:33;22.80;97.60
44509;DHT22;30214;52.246;14.408;2022-09-09T15:09:03;22.70;98.10
44509;DHT22;30214;52.246;14.408;2022-09-09T15:11:33;22.60;99.20
44509;DHT22;30214;52.246;14.408;2022-09-09T15:14:03;22.60;99.90
44509;DHT22;30214;52.246;14.408;2022-09-09T15:16:31;22.40;99.90
44509;DHT22;30214;52.246;14.408;2022-09-09T15:19:00;22.20;99.90
44509;DHT22;30214;52.246;14.408;2022-09-09T15:21:29;22.40;99.90
44509;DHT22;30214;52.246;14.408;2022-09-09T15:23:57;22.50;99.90
44509;DHT22;30214;52.246;14.408;2022-09-09T15:26:26;22.20;99.90
44509;DHT22;30214;52.246;14.408;2022-09-09T15:28:54;22.00;99.90
44509;DHT22;30214;52.246;14.408;2022-09-09T15:31:26;22.20;99.90
44509;DHT22;30214;52.246;14.408;2022-09-09T15:33:57;22.30;99.90
44509;DHT22;30214;52.246;14.408;2022-09-09T15:36:28;22.30;99.90
44509;DHT22;30214;52.246;14.408;2022-09-09T15:38:57;22.30;99.90
44509;DHT22;30214;52.246;14.408;2022-09-09T15:41:27;22.40;99.90
44509;DHT22;30214;52.246;14.408;2022-09-09T15:43:56;22.60;99.90
44509;DHT22;30214;52.246;14.408;2022-09-09T15:46:27;22.70;99.90
44509;DHT22;30214;52.246;14.408;2022-09-09T15:48:57;22.70;99.90
44509;DHT22;30214;52.246;14.408;2022-09-09T15:51:26;22.80;99.90
44509;DHT22;30214;52.246;14.408;2022-09-09T15:53:57;22.70;99.90
44509;DHT22;30214;52.246;14.408;2022-09-09T15:56:27;22.50;99.90
44509;DHT22;30214;52.246;14.408;2022-09-09T15:58:58;22.40;99.90
44509;DHT22;30214;52.246;14.408;2022-09-09T16:01:28;22.10;99.90
44509;DHT22;30214;52.246;14.408;2022-09-09T16:03:57;21.90;99.90
44509;DHT22;30214;52.246;14.408;2022-09-09T16:06:26;21.90;99.90
44509;DHT22;30214;52.246;14.408;2022-09-09T16:08:56;21.90;99.90
44509;DHT22;30214;52.246;14.408;2022-09-09T16:11:27;21.60;99.90
44509;DHT22;30214;52.246;14.408;2022-09-09T16:13:56;21.40;99.90
44509;DHT22;30214;52.246;14.408;2022-09-09T16:16:26;21.40;99.90
44509;DHT22;30214;52.246;14.408;2022-09-09T16:18:55;21.40;99.90
44509;DHT22;30214;52.246;14.408;2022-09-09T16:21:24;21.40;99.90
44509;DHT22;30214;52.246;14.408;2022-09-09T16:23:55;21.40;99.90
44509;DHT22;30214;52.246;14.408;2022-09-09T16:26:27;21.40;99.90
44509;DHT22;30214;52.246;14.408;2022-09-09T16:28:55;21.30;99.90
44509;DHT22;30214;52.246;14.408;2022-09-09T16:31:24;21.30;99.90
44509;DHT22;30214;52.246;14.408;2022-09-09T16:33:53;21.30;99.90
44509;DHT22;30214;52.246;14.408;2022-09-09T16:36:22;21.00;99.90
44509;DHT22;30214;52.246;14.408;2022-09-09T16:38:52;20.90;99.90
44509;DHT22;30214;52.246;14.408;2022-09-09T16:41:21;21.00;99.90
44509;DHT22;30214;52.246;14.408;2022-09-09T16:43:53;21.00;99.90